sensor_id;sensor_type;location;lat;lon;timestamp;P1;durP1;ratioP1;P2;durP2;ratioP2
23745;SDS011;12053;48.878;9.632;2023-04-03T00:02:12;5.55;;;3.65;;
23745;SDS011;12053;48.878;9.632;2023-04-03T00:04:39;4.07;;;3.53;;
23745;SDS011;12053;48.878;9.632;2023-04-03T00:07:07;6.75;;;3.90;;
23745;SDS011;12053;48.878;9.632;2023-04-03T00:09:34;6.35;;;4.70;;
23745;SDS011;12053;48.878;9.632;2023-04-03T00:12:01;6.85;;;3.95;;
23745;SDS011;12053;48.878;9.632;2023-04-03T00:14:29;8.10;;;4.85;;
23745;SDS011;12053;48.878;9.632;2023-04-03T00:16:56;5.97;;;4.10;;
23745;SDS011;12053;48.878;9.632;2023-04-03T00:19:23;5.03;;;4.13;;
23745;SDS011;12053;48.878;9.632;2023-04-03T00:21:50;5.63;;;3.47;;
23745;SDS011;12053;48.878;9.632;2023-04-03T00:24:19;5.68;;;3.90;;
23745;SDS011;12053;48.878;9.632;2023-04-03T00:26:46;4.88;;;3.55;;
23745;SDS011;12053;48.878;9.632;2023-04-03T00:29:13;4.15;;;3.45;;
23745;SDS011;12053;48.878;9.632;2023-04-03T00:31:41;5.60;;;3.78;;
23745;SDS011;12053;48.878;9.632;2023-04-03T00:34:08;6.20;;;3.28;;
23745;SDS011;12053;48.878;9.632;2023-04-03T00:36:35;5.20;;;3.45;;
23745;SDS011;12053;48.878;9.632;2023-04-03T00:39:02;4.82;;;3.78;;
23745;SDS011;12053;48.878;9.632;2023-04-03T00:41:30;5.95;;;3.58;;
23745;SDS011;12053;48.878;9.632;2023-04-03T00:43:57;3.35;;;3.00;;
23745;SDS011;12053;48.878;9.632;2023-04-03T00:46:25;6.47;;;3.40;;
23745;SDS011;12053;48.878;9.632;2023-04-03T00:48:52;7.70;;;3.95;;
23745;SDS011;12053;48.878;9.632;2023-04-03T00:51:20;4.45;;;3.45;;
23745;SDS011;12053;48.878;9.632;2023-04-03T00:54:01;7.50;;;3.60;;
23745;SDS011;12053;48.878;9.632;2023-04-03T00:56:29;4.90;;;3.60;;
23745;SDS011;12053;48.878;9.632;2023-04-03T00:58:58;3.92;;;3.53;;
23745;SDS011;12053;48.878;9.632;2023-04-03T01:01:27;4.05;;;3.40;;
23745;SDS011;12053;48.878;9.632;2023-04-03T01:03:54;4.60;;;3.55;;
23745;SDS011;12053;48.878;9.632;2023-04-03T01:06:26;3.63;;;3.33;;
23745;SDS011;12053;48.878;9.632;2023-04-03T01:08:54;4.60;;;3.03;;
23745;SDS011;12053;48.878;9.632;2023-04-03T01:11:21;3.97;;;3.30;;
23745;SDS011;12053;48.878;9.632;2023-04-03T01:13:48;7.10;;;3.50;;
23745;SDS011;12053;48.878;9.632;2023-04-03T01:16:16;5.75;;;2.80;;
23745;SDS011;12053;48.878;9.632;2023-04-03T01:18:43;5.80;;;3.88;;
23745;SDS011;12053;48.878;9.632;2023-04-03T01:23:56;5.32;;;3.10;;
23745;SDS011;12053;48.878;9.632;2023-04-03T01:26:25;5.55;;;3.47;;
23745;SDS011;12053;48.878;9.632;2023-04-03T01:28:54;3.88;;;2.97;;
23745;SDS011;12053;48.878;9.632;2023-04-03T01:31:25;3.08;;;2.78;;
23745;SDS011;12053;48.878;9.632;2023-04-03T01:33:54;5.30;;;3.28;;
23745;SDS011;12053;48.878;9.632;2023-04-03T01:36:28;6.95;;;2.83;;
23745;SDS011;12053;48.878;9.632;2023-04-03T01:38:56;4.72;;;3.15;;
23745;SDS011;12053;48.878;9.632;2023-04-03T01:41:25;7.60;;;3.17;;
23745;SDS011;12053;48.878;9.632;2023-04-03T01:43:53;3.63;;;2.88;;
23745;SDS011;12053;48.878;9.632;2023-04-03T01:46:21;4.38;;;3.10;;
23745;SDS011;12053;48.878;9.632;2023-04-03T01:48:48;3.80;;;2.92;;
23745;SDS011;12053;48.878;9.632;2023-04-03T01:51:15;4.90;;;3.00;;
23745;SDS011;12053;48.878;9.632;2023-04-03T01:53:42;4.72;;;3.03;;
23745;SDS011;12053;48.878;9.632;2023-04-03T01:56:10;3.65;;;3.00;;
23745;SDS011;12053;48.878;9.632;2023-04-03T01:58:37;4.32;;;2.78;;
23745;SDS011;12053;48.878;9.632;2023-04-03T02:01:04;3.67;;;3.10;;
23745;SDS011;12053;48.878;9.632;2023-04-03T02:03:32;4.22;;;2.80;;
23745;SDS011;12053;48.878;9.632;2023-04-03T02:05:59;3.08;;;2.78;;
23745;SDS011;12053;48.878;9.632;2023-04-03T02:08:26;4.82;;;3.47;;
23745;SDS011;12053;48.878;9.632;2023-04-03T02:10:53;5.35;;;3.13;;
23745;SDS011;12053;48.878;9.632;2023-04-03T02:13:21;3.60;;;2.65;;
23745;SDS011;12053;48.878;9.632;2023-04-03T02:15:48;5.47;;;3.28;;
23745;SDS011;12053;48.878;9.632;2023-04-03T02:18:15;3.55;;;2.40;;
23745;SDS011;12053;48.878;9.632;2023-04-03T02:20:42;5.22;;;3.20;;
23745;SDS011;12053;48.878;9.632;2023-04-03T02:23:10;6.22;;;3.30;;
23745;SDS011;12053;48.878;9.632;2023-04-03T02:25:37;3.85;;;2.78;;
23745;SDS011;12053;48.878;9.632;2023-04-03T02:28:04;7.03;;;2.92;;
23745;SDS011;12053;48.878;9.632;2023-04-03T02:30:32;6.78;;;2.90;;
23745;SDS011;12053;48.878;9.632;2023-04-03T02:32:59;4.80;;;3.15;;
23745;SDS011;12053;48.878;9.632;2023-04-03T02:35:26;3.50;;;3.20;;
23745;SDS011;12053;48.878;9.632;2023-04-03T02:37:54;4.10;;;2.70;;
23745;SDS011;12053;48.878;9.632;2023-04-03T02:40:21;4.78;;;2.25;;
23745;SDS011;12053;48.878;9.632;2023-04-03T02:42:48;4.68;;;3.00;;
23745;SDS011;12053;48.878;9.632;2023-04-03T02:45:16;3.60;;;3.00;;
23745;SDS011;12053;48.878;9.632;2023-04-03T02:47:43;4.57;;;2.63;;
23745;SDS011;12053;48.878;9.632;2023-04-03T02:50:10;2.83;;;2.30;;
23745;SDS011;12053;48.878;9.632;2023-04-03T02:52:37;3.15;;;2.60;;
23745;SDS011;12053;48.878;9.632;2023-04-03T02:55:04;3.17;;;2.30;;
23745;SDS011;12053;48.878;9.632;2023-04-03T02:57:32;4.85;;;2.90;;
23745;SDS011;12053;48.878;9.632;2023-04-03T02:59:59;3.85;;;2.60;;
23745;SDS011;12053;48.878;9.632;2023-04-03T03:02:26;5.40;;;3.00;;
23745;SDS011;12053;48.878;9.632;2023-04-03T03:04:53;5.32;;;3.50;;
23745;SDS011;12053;48.878;9.632;2023-04-03T03:07:21;10.65;;;4.57;;
23745;SDS011;12053;48.878;9.632;2023-04-03T03:09:48;5.00;;;3.05;;
23745;SDS011;12053;48.878;9.632;2023-04-03T03:12:15;2.80;;;2.17;;
23745;SDS011;12053;48.878;9.632;2023-04-03T03:14:47;5.13;;;2.70;;
23745;SDS011;12053;48.878;9.632;2023-04-03T03:17:15;4.10;;;3.25;;
23745;SDS011;12053;48.878;9.632;2023-04-03T03:19:42;4.18;;;3.08;;
23745;SDS011;12053;48.878;9.632;2023-04-03T03:22:09;3.40;;;3.05;;
23745;SDS011;12053;48.878;9.632;2023-04-03T03:24:36;4.15;;;3.30;;
23745;SDS011;12053;48.878;9.632;2023-04-03T03:27:04;3.72;;;2.70;;
23745;SDS011;12053;48.878;9.632;2023-04-03T03:29:31;3.20;;;2.90;;
23745;SDS011;12053;48.878;9.632;2023-04-03T03:31:58;4.55;;;2.90;;
23745;SDS011;12053;48.878;9.632;2023-04-03T03:34:25;3.28;;;2.63;;
23745;SDS011;12053;48.878;9.632;2023-04-03T03:36:53;4.75;;;2.97;;
23745;SDS011;12053;48.878;9.632;2023-04-03T03:39:20;4.38;;;2.80;;
23745;SDS011;12053;48.878;9.632;2023-04-03T03:41:47;3.33;;;2.65;;
23745;SDS011;12053;48.878;9.632;2023-04-03T03:44:15;5.00;;;2.97;;
23745;SDS011;12053;48.878;9.632;2023-04-03T03:46:43;3.60;;;2.90;;
23745;SDS011;12053;48.878;9.632;2023-04-03T03:49:10;3.08;;;2.75;;
23745;SDS011;12053;48.878;9.632;2023-04-03T03:51:38;4.68;;;2.97;;
23745;SDS011;12053;48.878;9.632;2023-04-03T03:54:06;4.07;;;2.63;;
23745;SDS011;12053;48.878;9.632;2023-04-03T03:56:33;5.22;;;3.22;;
23745;SDS011;12053;48.878;9.632;2023-04-03T03:59:00;3.50;;;2.63;;
23745;SDS011;12053;48.878;9.632;2023-04-03T04:01:28;3.47;;;2.40;;
23745;SDS011;12053;48.878;9.632;2023-04-03T04:03:55;4.85;;;2.58;;
23745;SDS011;12053;48.878;9.632;2023-04-03T04:06:23;5.28;;;3.10;;
23745;SDS011;12053;48.878;9.632;2023-04-03T04:08:50;3.80;;;2.85;;
23745;SDS011;12053;48.878;9.632;2023-04-03T04:11:17;4.40;;;3.10;;
23745;SDS011;12053;48.878;9.632;2023-04-03T04:13:45;3.60;;;2.40;;
23745;SDS011;12053;48.878;9.632;2023-04-03T04:16:12;5.10;;;3.03;;
23745;SDS011;12053;48.878;9.632;2023-04-03T04:18:39;4.65;;;2.58;;
23745;SDS011;12053;48.878;9.632;2023-04-03T04:21:06;5.25;;;3.20;;
23745;SDS011;12053;48.878;9.632;2023-04-03T04:23:34;4.47;;;2.60;;
23745;SDS011;12053;48.878;9.632;2023-04-03T04:26:01;4.78;;;2.63;;
23745;SDS011;12053;48.878;9.632;2023-04-03T04:28:28;3.70;;;2.55;;
23745;SDS011;12053;48.878;9.632;2023-04-03T04:30:55;7.60;;;2.83;;
23745;SDS011;12053;48.878;9.632;2023-04-03T04:33:22;3.78;;;2.75;;
23745;SDS011;12053;48.878;9.632;2023-04-03T04:35:50;5.38;;;3.17;;
23745;SDS011;12053;48.878;9.632;2023-04-03T04:38:18;2.38;;;2.17;;
23745;SDS011;12053;48.878;9.632;2023-04-03T04:40:46;3.72;;;2.72;;
23745;SDS011;12053;48.878;9.632;2023-04-03T04:43:13;4.32;;;2.90;;
23745;SDS011;12053;48.878;9.632;2023-04-03T04:45:41;4.78;;;3.20;;
23745;SDS011;12053;48.878;9.632;2023-04-03T04:48:08;4.45;;;3.22;;
23745;SDS011;12053;48.878;9.632;2023-04-03T04:50:35;11.43;;;2.95;;
23745;SDS011;12053;48.878;9.632;2023-04-03T04:53:02;4.53;;;2.72;;
23745;SDS011;12053;48.878;9.632;2023-04-03T04:55:30;3.17;;;2.78;;
23745;SDS011;12053;48.878;9.632;2023-04-03T04:57:57;4.28;;;3.00;;
23745;SDS011;12053;48.878;9.632;2023-04-03T05:00:25;4.95;;;3.25;;
23745;SDS011;12053;48.878;9.632;2023-04-03T05:02:52;6.03;;;4.38;;
23745;SDS011;12053;48.878;9.632;2023-04-03T05:05:19;5.60;;;3.88;;
23745;SDS011;12053;48.878;9.632;2023-04-03T05:07:46;4.03;;;2.83;;
23745;SDS011;12053;48.878;9.632;2023-04-03T05:10:13;6.13;;;3.40;;
23745;SDS011;12053;48.878;9.632;2023-04-03T05:12:40;5.78;;;3.50;;
23745;SDS011;12053;48.878;9.632;2023-04-03T05:15:08;4.80;;;3.13;;
23745;SDS011;12053;48.878;9.632;2023-04-03T05:17:35;3.33;;;2.45;;
23745;SDS011;12053;48.878;9.632;2023-04-03T05:20:03;3.30;;;2.95;;
23745;SDS011;12053;48.878;9.632;2023-04-03T05:22:31;3.08;;;2.78;;
23745;SDS011;12053;48.878;9.632;2023-04-03T05:24:58;4.75;;;3.35;;
23745;SDS011;12053;48.878;9.632;2023-04-03T05:27:25;5.88;;;3.42;;
23745;SDS011;12053;48.878;9.632;2023-04-03T05:29:54;5.63;;;3.42;;
23745;SDS011;12053;48.878;9.632;2023-04-03T05:32:22;3.63;;;2.80;;
23745;SDS011;12053;48.878;9.632;2023-04-03T05:34:50;4.30;;;3.20;;
23745;SDS011;12053;48.878;9.632;2023-04-03T05:37:17;4.95;;;3.45;;
23745;SDS011;12053;48.878;9.632;2023-04-03T05:39:45;4.63;;;3.05;;
23745;SDS011;12053;48.878;9.632;2023-04-03T05:42:12;3.53;;;3.20;;
23745;SDS011;12053;48.878;9.632;2023-04-03T05:44:39;4.72;;;3.30;;
23745;SDS011;12053;48.878;9.632;2023-04-03T05:47:07;4.00;;;3.33;;
23745;SDS011;12053;48.878;9.632;2023-04-03T05:49:34;5.18;;;3.35;;
23745;SDS011;12053;48.878;9.632;2023-04-03T05:52:01;5.80;;;3.15;;
23745;SDS011;12053;48.878;9.632;2023-04-03T05:54:29;3.15;;;2.72;;
23745;SDS011;12053;48.878;9.632;2023-04-03T05:56:56;4.43;;;3.05;;
23745;SDS011;12053;48.878;9.632;2023-04-03T05:59:23;6.63;;;2.75;;
23745;SDS011;12053;48.878;9.632;2023-04-03T06:01:51;6.60;;;3.10;;
23745;SDS011;12053;48.878;9.632;2023-04-03T06:04:18;5.72;;;3.30;;
23745;SDS011;12053;48.878;9.632;2023-04-03T06:06:51;6.57;;;3.88;;
23745;SDS011;12053;48.878;9.632;2023-04-03T06:09:19;7.00;;;4.30;;
23745;SDS011;12053;48.878;9.632;2023-04-03T06:11:47;6.00;;;3.67;;
23745;SDS011;12053;48.878;9.632;2023-04-03T06:14:14;6.28;;;4.22;;
23745;SDS011;12053;48.878;9.632;2023-04-03T06:16:41;3.00;;;2.67;;
23745;SDS011;12053;48.878;9.632;2023-04-03T06:19:10;6.07;;;3.47;;
23745;SDS011;12053;48.878;9.632;2023-04-03T06:21:37;8.25;;;2.72;;
23745;SDS011;12053;48.878;9.632;2023-04-03T06:24:05;6.82;;;2.88;;
23745;SDS011;12053;48.878;9.632;2023-04-03T06:26:32;9.05;;;3.28;;
23745;SDS011;12053;48.878;9.632;2023-04-03T06:29:00;4.35;;;2.88;;
23745;SDS011;12053;48.878;9.632;2023-04-03T06:31:28;2.85;;;2.33;;
23745;SDS011;12053;48.878;9.632;2023-04-03T06:33:56;6.93;;;2.92;;
23745;SDS011;12053;48.878;9.632;2023-04-03T06:36:23;5.95;;;3.50;;
23745;SDS011;12053;48.878;9.632;2023-04-03T06:38:50;3.95;;;2.72;;
23745;SDS011;12053;48.878;9.632;2023-04-03T06:41:18;6.63;;;3.30;;
23745;SDS011;12053;48.878;9.632;2023-04-03T06:43:45;3.95;;;2.60;;
23745;SDS011;12053;48.878;9.632;2023-04-03T06:46:13;5.18;;;3.05;;
23745;SDS011;12053;48.878;9.632;2023-04-03T06:48:41;4.22;;;2.97;;
23745;SDS011;12053;48.878;9.632;2023-04-03T06:51:21;2.78;;;2.47;;
23745;SDS011;12053;48.878;9.632;2023-04-03T06:53:49;5.43;;;3.33;;
23745;SDS011;12053;48.878;9.632;2023-04-03T06:56:17;5.50;;;3.50;;
23745;SDS011;12053;48.878;9.632;2023-04-03T06:58:44;4.13;;;2.63;;
23745;SDS011;12053;48.878;9.632;2023-04-03T07:01:13;4.55;;;2.78;;
23745;SDS011;12053;48.878;9.632;2023-04-03T07:03:41;4.40;;;3.15;;
23745;SDS011;12053;48.878;9.632;2023-04-03T07:06:09;4.00;;;2.05;;
23745;SDS011;12053;48.878;9.632;2023-04-03T07:08:37;3.10;;;2.38;;
23745;SDS011;12053;48.878;9.632;2023-04-03T07:11:05;5.70;;;3.08;;
23745;SDS011;12053;48.878;9.632;2023-04-03T07:13:32;3.70;;;2.33;;
23745;SDS011;12053;48.878;9.632;2023-04-03T07:15:59;5.07;;;2.65;;
23745;SDS011;12053;48.878;9.632;2023-04-03T07:18:27;4.40;;;2.40;;
23745;SDS011;12053;48.878;9.632;2023-04-03T07:20:54;2.95;;;2.40;;
23745;SDS011;12053;48.878;9.632;2023-04-03T07:23:22;3.55;;;2.22;;
23745;SDS011;12053;48.878;9.632;2023-04-03T07:25:49;3.80;;;2.40;;
23745;SDS011;12053;48.878;9.632;2023-04-03T07:28:17;5.00;;;2.80;;
23745;SDS011;12053;48.878;9.632;2023-04-03T07:30:46;6.97;;;2.75;;
23745;SDS011;12053;48.878;9.632;2023-04-03T07:33:14;7.15;;;3.10;;
23745;SDS011;12053;48.878;9.632;2023-04-03T07:35:42;4.13;;;2.58;;
23745;SDS011;12053;48.878;9.632;2023-04-03T07:38:09;5.55;;;2.90;;
23745;SDS011;12053;48.878;9.632;2023-04-03T07:40:37;4.97;;;2.38;;
23745;SDS011;12053;48.878;9.632;2023-04-03T07:43:05;2.85;;;2.40;;
23745;SDS011;12053;48.878;9.632;2023-04-03T07:45:34;2.95;;;2.53;;
23745;SDS011;12053;48.878;9.632;2023-04-03T07:48:02;3.13;;;2.30;;
23745;SDS011;12053;48.878;9.632;2023-04-03T07:50:29;4.15;;;2.63;;
23745;SDS011;12053;48.878;9.632;2023-04-03T07:52:58;3.65;;;2.58;;
23745;SDS011;12053;48.878;9.632;2023-04-03T07:55:25;4.63;;;2.67;;
23745;SDS011;12053;48.878;9.632;2023-04-03T07:57:52;4.57;;;2.78;;
23745;SDS011;12053;48.878;9.632;2023-04-03T08:00:20;5.50;;;2.95;;
23745;SDS011;12053;48.878;9.632;2023-04-03T08:02:47;4.43;;;2.33;;
23745;SDS011;12053;48.878;9.632;2023-04-03T08:05:17;4.93;;;2.70;;
23745;SDS011;12053;48.878;9.632;2023-04-03T08:07:45;6.50;;;2.95;;
23745;SDS011;12053;48.878;9.632;2023-04-03T08:10:13;8.00;;;3.40;;
23745;SDS011;12053;48.878;9.632;2023-04-03T08:12:40;6.68;;;3.05;;
23745;SDS011;12053;48.878;9.632;2023-04-03T08:15:08;6.82;;;2.42;;
23745;SDS011;12053;48.878;9.632;2023-04-03T08:17:35;6.13;;;3.33;;
23745;SDS011;12053;48.878;9.632;2023-04-03T08:20:04;6.97;;;3.08;;
23745;SDS011;12053;48.878;9.632;2023-04-03T08:22:33;5.63;;;2.63;;
23745;SDS011;12053;48.878;9.632;2023-04-03T08:25:00;3.13;;;2.40;;
23745;SDS011;12053;48.878;9.632;2023-04-03T08:27:27;4.60;;;2.60;;
23745;SDS011;12053;48.878;9.632;2023-04-03T08:29:55;6.30;;;2.75;;
23745;SDS011;12053;48.878;9.632;2023-04-03T08:32:23;5.45;;;2.78;;
23745;SDS011;12053;48.878;9.632;2023-04-03T08:34:50;4.18;;;3.20;;
23745;SDS011;12053;48.878;9.632;2023-04-03T08:37:17;3.58;;;2.10;;
23745;SDS011;12053;48.878;9.632;2023-04-03T08:39:45;4.07;;;2.42;;
23745;SDS011;12053;48.878;9.632;2023-04-03T08:47:23;5.97;;;3.03;;
23745;SDS011;12053;48.878;9.632;2023-04-03T08:49:52;9.25;;;2.70;;
23745;SDS011;12053;48.878;9.632;2023-04-03T08:54:54;5.43;;;2.88;;
23745;SDS011;12053;48.878;9.632;2023-04-03T08:57:35;3.30;;;2.33;;
23745;SDS011;12053;48.878;9.632;2023-04-03T09:00:05;6.60;;;3.22;;
23745;SDS011;12053;48.878;9.632;2023-04-03T09:02:34;6.07;;;2.80;;
23745;SDS011;12053;48.878;9.632;2023-04-03T09:05:10;6.40;;;2.80;;
23745;SDS011;12053;48.878;9.632;2023-04-03T09:07:43;6.97;;;2.45;;
23745;SDS011;12053;48.878;9.632;2023-04-03T09:10:14;4.28;;;2.33;;
23745;SDS011;12053;48.878;9.632;2023-04-03T09:12:46;6.10;;;2.65;;
23745;SDS011;12053;48.878;9.632;2023-04-03T09:15:23;6.80;;;2.85;;
23745;SDS011;12053;48.878;9.632;2023-04-03T09:20:58;3.83;;;3.15;;
23745;SDS011;12053;48.878;9.632;2023-04-03T09:26:06;2.33;;;2.13;;
23745;SDS011;12053;48.878;9.632;2023-04-03T09:28:36;6.70;;;2.70;;
23745;SDS011;12053;48.878;9.632;2023-04-03T09:33:42;9.60;;;2.83;;
23745;SDS011;12053;48.878;9.632;2023-04-03T09:36:11;4.15;;;2.17;;
23745;SDS011;12053;48.878;9.632;2023-04-03T09:38:38;5.50;;;2.20;;
23745;SDS011;12053;48.878;9.632;2023-04-03T09:41:06;3.88;;;2.25;;
23745;SDS011;12053;48.878;9.632;2023-04-03T09:43:34;3.33;;;1.80;;
23745;SDS011;12053;48.878;9.632;2023-04-03T09:46:25;5.60;;;2.22;;
23745;SDS011;12053;48.878;9.632;2023-04-03T09:48:57;4.03;;;2.08;;
23745;SDS011;12053;48.878;9.632;2023-04-03T09:51:33;5.47;;;2.08;;
23745;SDS011;12053;48.878;9.632;2023-04-03T09:54:01;3.78;;;2.20;;
23745;SDS011;12053;48.878;9.632;2023-04-03T09:56:51;3.30;;;1.88;;
23745;SDS011;12053;48.878;9.632;2023-04-03T09:59:19;1.85;;;1.45;;
23745;SDS011;12053;48.878;9.632;2023-04-03T10:02:00;4.90;;;1.88;;
23745;SDS011;12053;48.878;9.632;2023-04-03T10:04:37;5.05;;;1.88;;
23745;SDS011;12053;48.878;9.632;2023-04-03T10:07:30;3.47;;;1.52;;
23745;SDS011;12053;48.878;9.632;2023-04-03T10:09:56;3.17;;;1.20;;
23745;SDS011;12053;48.878;9.632;2023-04-03T10:12:24;4.05;;;1.50;;
23745;SDS011;12053;48.878;9.632;2023-04-03T10:14:58;2.80;;;1.70;;
23745;SDS011;12053;48.878;9.632;2023-04-03T10:23:24;2.47;;;1.80;;
23745;SDS011;12053;48.878;9.632;2023-04-03T10:28:02;3.15;;;1.60;;
23745;SDS011;12053;48.878;9.632;2023-04-03T10:30:34;1.83;;;1.40;;
23745;SDS011;12053;48.878;9.632;2023-04-03T10:33:10;5.78;;;1.70;;
23745;SDS011;12053;48.878;9.632;2023-04-03T10:41:17;8.60;;;1.90;;
23745;SDS011;12053;48.878;9.632;2023-04-03T10:43:57;5.22;;;1.60;;
23745;SDS011;12053;48.878;9.632;2023-04-03T10:49:09;2.25;;;1.33;;
23745;SDS011;12053;48.878;9.632;2023-04-03T10:54:26;3.65;;;1.95;;
23745;SDS011;12053;48.878;9.632;2023-04-03T10:57:00;2.03;;;1.65;;
23745;SDS011;12053;48.878;9.632;2023-04-03T10:59:51;2.03;;;1.60;;
23745;SDS011;12053;48.878;9.632;2023-04-03T11:02:24;1.88;;;1.50;;
23745;SDS011;12053;48.878;9.632;2023-04-03T11:07:43;3.63;;;1.73;;
23745;SDS011;12053;48.878;9.632;2023-04-03T11:12:46;5.88;;;1.65;;
23745;SDS011;12053;48.878;9.632;2023-04-03T11:15:17;2.67;;;1.88;;
23745;SDS011;12053;48.878;9.632;2023-04-03T11:17:48;3.20;;;2.00;;
23745;SDS011;12053;48.878;9.632;2023-04-03T11:20:23;3.50;;;2.03;;
23745;SDS011;12053;48.878;9.632;2023-04-03T11:22:57;3.88;;;2.20;;
23745;SDS011;12053;48.878;9.632;2023-04-03T11:25:25;3.65;;;2.10;;
23745;SDS011;12053;48.878;9.632;2023-04-03T11:27:56;3.13;;;1.77;;
23745;SDS011;12053;48.878;9.632;2023-04-03T11:35:54;2.50;;;1.80;;
23745;SDS011;12053;48.878;9.632;2023-04-03T11:38:29;3.40;;;2.00;;
23745;SDS011;12053;48.878;9.632;2023-04-03T11:41:00;2.58;;;1.80;;
23745;SDS011;12053;48.878;9.632;2023-04-03T11:43:31;4.80;;;2.00;;
23745;SDS011;12053;48.878;9.632;2023-04-03T11:46:03;4.78;;;2.47;;
23745;SDS011;12053;48.878;9.632;2023-04-03T11:50:58;2.53;;;1.90;;
23745;SDS011;12053;48.878;9.632;2023-04-03T11:55:57;3.22;;;2.05;;
23745;SDS011;12053;48.878;9.632;2023-04-03T11:58:28;14.50;;;5.97;;
23745;SDS011;12053;48.878;9.632;2023-04-03T12:00:56;4.20;;;2.53;;
23745;SDS011;12053;48.878;9.632;2023-04-03T12:13:40;2.22;;;1.38;;
23745;SDS011;12053;48.878;9.632;2023-04-03T12:16:10;3.90;;;1.77;;
23745;SDS011;12053;48.878;9.632;2023-04-03T12:21:13;3.28;;;1.98;;
23745;SDS011;12053;48.878;9.632;2023-04-03T12:23:58;2.67;;;1.48;;
23745;SDS011;12053;48.878;9.632;2023-04-03T12:26:29;1.92;;;1.48;;
23745;SDS011;12053;48.878;9.632;2023-04-03T12:29:20;1.65;;;1.42;;
23745;SDS011;12053;48.878;9.632;2023-04-03T12:34:37;2.55;;;1.50;;
23745;SDS011;12053;48.878;9.632;2023-04-03T12:39:48;3.63;;;1.80;;
23745;SDS011;12053;48.878;9.632;2023-04-03T12:47:33;3.35;;;1.85;;
23745;SDS011;12053;48.878;9.632;2023-04-03T12:50:04;4.75;;;2.00;;
23745;SDS011;12053;48.878;9.632;2023-04-03T12:52:36;5.35;;;2.30;;
23745;SDS011;12053;48.878;9.632;2023-04-03T12:55:11;2.55;;;1.73;;
23745;SDS011;12053;48.878;9.632;2023-04-03T12:57:41;4.63;;;2.15;;
23745;SDS011;12053;48.878;9.632;2023-04-03T13:02:48;4.28;;;1.92;;
23745;SDS011;12053;48.878;9.632;2023-04-03T13:05:19;3.30;;;1.70;;
23745;SDS011;12053;48.878;9.632;2023-04-03T13:07:57;2.72;;;1.30;;
23745;SDS011;12053;48.878;9.632;2023-04-03T13:10:25;2.92;;;1.85;;
23745;SDS011;12053;48.878;9.632;2023-04-03T13:12:53;3.97;;;2.45;;
23745;SDS011;12053;48.878;9.632;2023-04-03T13:17:49;3.47;;;2.58;;
23745;SDS011;12053;48.878;9.632;2023-04-03T13:20:31;5.43;;;2.53;;
23745;SDS011;12053;48.878;9.632;2023-04-03T13:23:04;3.95;;;2.22;;
23745;SDS011;12053;48.878;9.632;2023-04-03T13:25:33;4.35;;;2.33;;
23745;SDS011;12053;48.878;9.632;2023-04-03T13:28:01;3.17;;;2.13;;
23745;SDS011;12053;48.878;9.632;2023-04-03T13:30:39;7.05;;;2.55;;
23745;SDS011;12053;48.878;9.632;2023-04-03T13:33:20;2.53;;;1.85;;
23745;SDS011;12053;48.878;9.632;2023-04-03T13:35:54;2.65;;;1.92;;
23745;SDS011;12053;48.878;9.632;2023-04-03T13:38:27;3.35;;;2.05;;
23745;SDS011;12053;48.878;9.632;2023-04-03T13:40:58;2.25;;;1.67;;
23745;SDS011;12053;48.878;9.632;2023-04-03T13:43:33;5.80;;;3.10;;
23745;SDS011;12053;48.878;9.632;2023-04-03T13:46:05;6.75;;;3.05;;
23745;SDS011;12053;48.878;9.632;2023-04-03T13:48:37;4.07;;;1.90;;
23745;SDS011;12053;48.878;9.632;2023-04-03T13:53:47;4.15;;;2.45;;
23745;SDS011;12053;48.878;9.632;2023-04-03T13:56:18;2.30;;;1.80;;
23745;SDS011;12053;48.878;9.632;2023-04-03T13:58:54;4.40;;;2.13;;
23745;SDS011;12053;48.878;9.632;2023-04-03T14:01:22;3.33;;;2.38;;
23745;SDS011;12053;48.878;9.632;2023-04-03T14:03:54;3.40;;;2.10;;
23745;SDS011;12053;48.878;9.632;2023-04-03T14:06:22;2.83;;;2.08;;
23745;SDS011;12053;48.878;9.632;2023-04-03T14:08:50;3.22;;;2.05;;
23745;SDS011;12053;48.878;9.632;2023-04-03T14:11:21;3.97;;;2.08;;
23745;SDS011;12053;48.878;9.632;2023-04-03T14:13:50;4.78;;;2.40;;
23745;SDS011;12053;48.878;9.632;2023-04-03T14:16:18;7.40;;;3.60;;
23745;SDS011;12053;48.878;9.632;2023-04-03T14:18:46;3.03;;;2.05;;
23745;SDS011;12053;48.878;9.632;2023-04-03T14:21:16;3.95;;;2.22;;
23745;SDS011;12053;48.878;9.632;2023-04-03T14:23:44;3.90;;;2.47;;
23745;SDS011;12053;48.878;9.632;2023-04-03T14:26:12;3.63;;;1.98;;
23745;SDS011;12053;48.878;9.632;2023-04-03T14:28:40;2.38;;;1.73;;
23745;SDS011;12053;48.878;9.632;2023-04-03T14:31:10;4.07;;;2.38;;
23745;SDS011;12053;48.878;9.632;2023-04-03T14:33:38;4.50;;;2.35;;
23745;SDS011;12053;48.878;9.632;2023-04-03T14:36:20;5.82;;;2.15;;
23745;SDS011;12053;48.878;9.632;2023-04-03T14:38:47;4.53;;;1.88;;
23745;SDS011;12053;48.878;9.632;2023-04-03T14:41:16;2.55;;;1.73;;
23745;SDS011;12053;48.878;9.632;2023-04-03T14:43:44;4.07;;;1.80;;
23745;SDS011;12053;48.878;9.632;2023-04-03T14:46:12;5.13;;;2.00;;
23745;SDS011;12053;48.878;9.632;2023-04-03T14:48:40;5.10;;;2.30;;
23745;SDS011;12053;48.878;9.632;2023-04-03T14:51:09;2.63;;;2.17;;
23745;SDS011;12053;48.878;9.632;2023-04-03T14:53:37;5.82;;;2.70;;
23745;SDS011;12053;48.878;9.632;2023-04-03T14:56:09;10.65;;;4.35;;
23745;SDS011;12053;48.878;9.632;2023-04-03T15:01:04;4.15;;;2.00;;
23745;SDS011;12053;48.878;9.632;2023-04-03T15:03:31;2.38;;;1.73;;
23745;SDS011;12053;48.878;9.632;2023-04-03T15:05:59;2.90;;;2.00;;
23745;SDS011;12053;48.878;9.632;2023-04-03T15:08:26;2.97;;;1.83;;
23745;SDS011;12053;48.878;9.632;2023-04-03T15:10:57;3.38;;;1.98;;
23745;SDS011;12053;48.878;9.632;2023-04-03T15:13:24;3.53;;;2.40;;
23745;SDS011;12053;48.878;9.632;2023-04-03T15:15:52;4.25;;;2.33;;
23745;SDS011;12053;48.878;9.632;2023-04-03T15:18:20;4.38;;;2.15;;
23745;SDS011;12053;48.878;9.632;2023-04-03T15:20:48;3.78;;;2.15;;
23745;SDS011;12053;48.878;9.632;2023-04-03T15:23:16;6.07;;;1.67;;
23745;SDS011;12053;48.878;9.632;2023-04-03T15:25:44;5.47;;;2.55;;
23745;SDS011;12053;48.878;9.632;2023-04-03T15:30:57;3.25;;;1.88;;
23745;SDS011;12053;48.878;9.632;2023-04-03T15:33:25;2.58;;;1.73;;
23745;SDS011;12053;48.878;9.632;2023-04-03T15:35:52;2.95;;;2.00;;
23745;SDS011;12053;48.878;9.632;2023-04-03T15:38:32;2.00;;;1.65;;
23745;SDS011;12053;48.878;9.632;2023-04-03T15:41:00;5.70;;;2.72;;
23745;SDS011;12053;48.878;9.632;2023-04-03T15:43:27;4.95;;;2.70;;
23745;SDS011;12053;48.878;9.632;2023-04-03T15:45:58;4.70;;;2.17;;
23745;SDS011;12053;48.878;9.632;2023-04-03T15:48:26;4.97;;;3.53;;
23745;SDS011;12053;48.878;9.632;2023-04-03T15:50:53;4.53;;;2.03;;
23745;SDS011;12053;48.878;9.632;2023-04-03T15:53:23;2.88;;;2.08;;
23745;SDS011;12053;48.878;9.632;2023-04-03T15:55:50;3.45;;;1.77;;
23745;SDS011;12053;48.878;9.632;2023-04-03T15:58:17;2.90;;;2.30;;
23745;SDS011;12053;48.878;9.632;2023-04-03T16:00:44;4.93;;;2.65;;
23745;SDS011;12053;48.878;9.632;2023-04-03T16:03:12;7.53;;;2.88;;
23745;SDS011;12053;48.878;9.632;2023-04-03T16:05:41;5.25;;;3.40;;
23745;SDS011;12053;48.878;9.632;2023-04-03T16:08:09;6.07;;;3.47;;
23745;SDS011;12053;48.878;9.632;2023-04-03T16:10:36;5.00;;;2.90;;
23745;SDS011;12053;48.878;9.632;2023-04-03T16:13:04;3.70;;;2.13;;
23745;SDS011;12053;48.878;9.632;2023-04-03T16:15:32;4.03;;;1.80;;
23745;SDS011;12053;48.878;9.632;2023-04-03T16:17:59;3.75;;;2.80;;
23745;SDS011;12053;48.878;9.632;2023-04-03T16:20:27;3.08;;;1.75;;
23745;SDS011;12053;48.878;9.632;2023-04-03T16:22:55;4.80;;;2.28;;
23745;SDS011;12053;48.878;9.632;2023-04-03T16:25:23;3.38;;;2.05;;
23745;SDS011;12053;48.878;9.632;2023-04-03T16:27:50;3.55;;;2.15;;
23745;SDS011;12053;48.878;9.632;2023-04-03T16:30:17;2.70;;;2.00;;